Time;durP1;ratioP1;P1;durP2;ratioP2;P2;SDS_P1;SDS_P2;PMS_P1;PMS_P2;Temp;Humidity;BMP_temperature;BMP_pressure;BME280_temperature;BME280_humidity;BME280_pressure;Samples;Min_cycle;Max_cycle;Signal;HPM_P1;HPM_P2
2021/12/26 00:00:31;;;;;;;9.23;4.82;;;;;;;;;;5078096;28;20080;-59
2021/12/26 00:02:57;;;;;;;10.40;4.25;;;;;;;;;;5086300;28;20036;-59
2021/12/26 00:05:24;;;;;;;11.15;4.05;;;;;;;;;;5085879;28;20043;-59
2021/12/26 00:07:50;;;;;;;10.35;4.65;;;;;;;;;;5086982;28;20037;-59
2021/12/26 00:10:17;;;;;;;7.43;3.65;;;;;;;;;;5081236;28;20108;-59
2021/12/26 00:12:44;;;;;;;9.57;4.05;;;;;;;;;;5086207;28;20036;-59
2021/12/26 00:15:10;;;;;;;9.57;3.88;;;;;;;;;;5086666;28;20032;-59
2021/12/26 00:17:37;;;;;;;7.13;3.10;;;;;;;;;;5081561;28;20349;-59
2021/12/26 00:20:04;;;;;;;8.18;3.50;;;;;;;;;;5081247;28;20051;-59
2021/12/26 00:22:30;;;;;;;7.70;2.80;;;;;;;;;;5085285;28;20122;-59
2021/12/26 00:24:56;;;;;;;8.05;2.80;;;;;;;;;;5088994;28;20166;-59
2021/12/26 00:27:23;;;;;;;5.57;2.35;;;;;;;;;;5083473;28;20044;-59
2021/12/26 00:29:49;;;;;;;6.55;2.55;;;;;;;;;;5087443;28;20384;-59
2021/12/26 00:32:15;;;;;;;5.47;2.10;;;;;;;;;;5089570;28;20137;-59
2021/12/26 00:34:41;;;;;;;6.45;2.40;;;;;;;;;;5084832;28;20068;-60
2021/12/26 00:37:08;;;;;;;7.50;2.70;;;;;;;;;;5087393;28;20060;-59
2021/12/26 00:39:35;;;;;;;6.88;2.55;;;;;;;;;;5080770;28;20094;-59
2021/12/26 00:42:01;;;;;;;8.40;2.50;;;;;;;;;;5086297;28;20082;-59
2021/12/26 00:44:28;;;;;;;8.68;2.28;;;;;;;;;;5082123;28;20050;-59
2021/12/26 00:46:54;;;;;;;6.05;2.08;;;;;;;;;;5087844;28;20448;-60
2021/12/26 00:49:21;;;;;;;7.18;2.47;;;;;;;;;;5076832;28;20109;-59
2021/12/26 00:51:48;;;;;;;5.22;2.20;;;;;;;;;;5087707;28;20044;-59
2021/12/26 00:54:14;;;;;;;8.02;2.63;;;;;;;;;;5077611;28;20109;-59
2021/12/26 00:56:40;;;;;;;9.70;2.67;;;;;;;;;;5079931;28;20375;-59
2021/12/26 00:59:06;;;;;;;7.82;3.05;;;;;;;;;;5084297;28;20044;-59
2021/12/26 01:01:33;;;;;;;6.78;2.08;;;;;;;;;;5089009;28;20139;-59
2021/12/26 01:04:00;;;;;;;7.75;2.63;;;;;;;;;;5077862;28;20475;-59
2021/12/26 01:06:27;;;;;;;7.10;2.00;;;;;;;;;;5074667;28;20123;-59
2021/12/26 01:08:54;;;;;;;5.97;2.28;;;;;;;;;;5078046;28;20373;-59
2021/12/26 01:11:33;;;;;;;7.03;2.50;;;;;;;;;;5077360;28;20080;-59
2021/12/26 01:13:59;;;;;;;4.85;1.80;;;;;;;;;;5082167;28;20186;-59
2021/12/26 01:16:28;;;;;;;5.57;2.22;;;;;;;;;;5075716;28;20735;-59
2021/12/26 01:19:05;;;;;;;5.38;2.05;;;;;;;;;;5077113;28;20052;-59
2021/12/26 01:21:32;;;;;;;7.28;2.60;;;;;;;;;;5077733;28;20391;-60
2021/12/26 01:24:00;;;;;;;8.23;2.70;;;;;;;;;;5074335;28;20054;-59
2021/12/26 01:26:27;;;;;;;6.03;2.03;;;;;;;;;;5080665;28;20365;-59
2021/12/26 01:28:53;;;;;;;5.65;1.77;;;;;;;;;;5078431;28;20143;-60
2021/12/26 01:31:20;;;;;;;8.65;2.53;;;;;;;;;;5079786;28;20458;-60
2021/12/26 01:33:48;;;;;;;5.13;2.17;;;;;;;;;;5085939;28;20063;-60
2021/12/26 01:36:14;;;;;;;7.40;2.25;;;;;;;;;;5089073;28;20103;-60
2021/12/26 01:38:40;;;;;;;4.78;1.98;;;;;;;;;;5079277;28;20040;-59
2021/12/26 01:41:10;;;;;;;5.55;2.15;;;;;;;;;;5078973;28;20041;-60
2021/12/26 01:43:37;;;;;;;5.72;2.05;;;;;;;;;;5077348;28;20051;-60
2021/12/26 01:46:03;;;;;;;7.30;1.70;;;;;;;;;;5078163;28;20044;-60
2021/12/26 01:48:29;;;;;;;3.55;1.52;;;;;;;;;;5077711;28;20048;-60
2021/12/26 01:50:56;;;;;;;8.40;2.05;;;;;;;;;;5079176;28;20166;-60
2021/12/26 01:53:24;;;;;;;4.47;1.75;;;;;;;;;;5078045;28;20056;-60
2021/12/26 01:55:51;;;;;;;6.60;1.80;;;;;;;;;;5083880;28;20487;-60
2021/12/26 01:58:19;;;;;;;4.25;1.73;;;;;;;;;;5078543;28;20036;-60
2021/12/26 02:00:49;;;;;;;4.38;1.95;;;;;;;;;;5077963;28;20040;-61
2021/12/26 02:03:16;;;;;;;9.10;2.17;;;;;;;;;;5082638;28;20059;-60
2021/12/26 02:05:42;;;;;;;4.80;1.73;;;;;;;;;;5088941;28;20411;-60
2021/12/26 02:08:08;;;;;;;4.68;1.50;;;;;;;;;;5086436;28;20055;-60
2021/12/26 02:10:35;;;;;;;4.22;1.83;;;;;;;;;;5102540;28;20075;-60
2021/12/26 02:13:01;;;;;;;5.72;1.95;;;;;;;;;;5081302;28;20048;-60
2021/12/26 02:15:27;;;;;;;5.10;1.92;;;;;;;;;;5095399;27;20124;-60
2021/12/26 02:17:53;;;;;;;5.63;2.42;;;;;;;;;;5082055;28;20045;-60
2021/12/26 02:20:21;;;;;;;5.97;1.90;;;;;;;;;;5085097;28;20127;-60
2021/12/26 02:22:53;;;;;;;4.85;1.98;;;;;;;;;;5083161;28;20048;-60
2021/12/26 02:27:30;;;;;;;5.45;2.72;;;;;;;;;;5083278;28;20097;-60
2021/12/26 02:28:18;;;;;;;5.57;1.77;;;;;;;;;;5084030;28;20142;-60
2021/12/26 02:30:45;;;;;;;7.20;2.47;;;;;;;;;;5085639;28;20060;-60
2021/12/26 02:36:33;;;;;;;5.30;2.03;;;;;;;;;;5083700;28;20109;-61
2021/12/26 02:39:00;;;;;;;7.40;2.30;;;;;;;;;;5081352;28;20510;-60
2021/12/26 02:41:26;;;;;;;7.05;1.83;;;;;;;;;;5079327;28;20135;-61
2021/12/26 02:43:52;;;;;;;5.95;1.75;;;;;;;;;;5079246;28;20447;-60
2021/12/26 02:46:18;;;;;;;6.35;2.00;;;;;;;;;;5085528;28;20480;-61
2021/12/26 02:48:44;;;;;;;4.85;2.08;;;;;;;;;;5081987;28;20052;-61
2021/12/26 02:51:11;;;;;;;5.30;1.90;;;;;;;;;;5084224;28;20056;-60
2021/12/26 02:53:37;;;;;;;4.80;1.73;;;;;;;;;;5083639;28;20051;-61
2021/12/26 02:56:04;;;;;;;5.05;1.65;;;;;;;;;;5088640;28;20097;-61
2021/12/26 02:58:30;;;;;;;4.13;1.73;;;;;;;;;;5082054;28;20115;-61
2021/12/26 03:01:00;;;;;;;5.32;1.90;;;;;;;;;;5075937;28;20113;-61
2021/12/26 03:03:26;;;;;;;3.30;1.50;;;;;;;;;;5080247;28;20127;-60
2021/12/26 03:05:55;;;;;;;5.07;1.85;;;;;;;;;;5088508;28;20055;-61
2021/12/26 03:08:21;;;;;;;5.07;1.63;;;;;;;;;;5089238;28;20048;-61
2021/12/26 03:10:47;;;;;;;8.88;2.30;;;;;;;;;;5086527;28;20067;-61
2021/12/26 03:13:14;;;;;;;4.30;1.80;;;;;;;;;;5077157;28;20133;-61
2021/12/26 03:15:42;;;;;;;5.63;2.10;;;;;;;;;;5076398;28;20114;-61
2021/12/26 03:18:08;;;;;;;4.45;1.88;;;;;;;;;;5083352;28;20051;-61
2021/12/26 03:20:38;;;;;;;5.65;1.80;;;;;;;;;;5082464;28;20068;-61
2021/12/26 03:23:05;;;;;;;5.95;2.20;;;;;;;;;;5077821;28;20045;-61
2021/12/26 03:25:32;;;;;;;4.22;1.45;;;;;;;;;;5079856;28;20045;-62
2021/12/26 03:27:59;;;;;;;4.72;1.70;;;;;;;;;;5080412;28;20028;-61
2021/12/26 03:30:27;;;;;;;3.90;1.30;;;;;;;;;;5078085;28;20043;-62
2021/12/26 03:32:53;;;;;;;5.47;1.80;;;;;;;;;;5083284;28;20448;-62
2021/12/26 03:35:20;;;;;;;4.10;1.50;;;;;;;;;;5080905;28;20464;-61
2021/12/26 03:37:46;;;;;;;2.72;1.17;;;;;;;;;;5076275;28;20060;-62
2021/12/26 03:40:13;;;;;;;5.63;1.60;;;;;;;;;;5074464;28;20127;-62
2021/12/26 03:42:39;;;;;;;4.05;1.50;;;;;;;;;;5080313;28;20051;-62
2021/12/26 03:45:07;;;;;;;5.18;1.52;;;;;;;;;;5083176;28;20048;-61
2021/12/26 03:47:34;;;;;;;5.45;1.85;;;;;;;;;;5078184;28;20470;-62
2021/12/26 03:50:00;;;;;;;3.78;1.60;;;;;;;;;;5081630;28;20104;-61
2021/12/26 03:52:26;;;;;;;4.68;1.45;;;;;;;;;;5077391;28;20078;-62
2021/12/26 03:54:53;;;;;;;4.00;1.60;;;;;;;;;;5076709;28;20040;-62
2021/12/26 03:57:19;;;;;;;4.05;1.77;;;;;;;;;;5085730;28;20043;-62
2021/12/26 03:59:46;;;;;;;3.58;1.45;;;;;;;;;;5078086;28;20051;-62
2021/12/26 04:02:12;;;;;;;3.53;1.38;;;;;;;;;;5075894;28;20443;-62
2021/12/26 04:04:39;;;;;;;5.18;1.58;;;;;;;;;;5083465;28;20402;-62
2021/12/26 04:07:05;;;;;;;3.60;1.55;;;;;;;;;;5087281;28;20051;-62
2021/12/26 04:09:31;;;;;;;5.53;1.60;;;;;;;;;;5086218;28;20044;-62
2021/12/26 04:11:57;;;;;;;8.00;1.80;;;;;;;;;;5083187;28;20040;-63
2021/12/26 04:14:23;;;;;;;5.30;1.63;;;;;;;;;;5079677;28;20048;-62
2021/12/26 04:16:49;;;;;;;4.25;1.88;;;;;;;;;;5080300;28;20036;-62
2021/12/26 04:19:16;;;;;;;6.53;1.88;;;;;;;;;;5082695;28;20047;-62
2021/12/26 04:21:42;;;;;;;3.95;1.77;;;;;;;;;;5081896;28;20196;-63
2021/12/26 04:24:08;;;;;;;3.83;1.80;;;;;;;;;;5082330;28;20543;-63
2021/12/26 04:26:34;;;;;;;5.22;2.00;;;;;;;;;;5082405;28;20048;-63
2021/12/26 04:29:00;;;;;;;4.38;1.60;;;;;;;;;;5081075;28;20475;-63
2021/12/26 04:31:27;;;;;;;3.78;1.70;;;;;;;;;;5082726;28;20040;-62
2021/12/26 04:33:53;;;;;;;8.55;1.58;;;;;;;;;;5076938;28;20058;-63
2021/12/26 04:36:21;;;;;;;2.92;1.13;;;;;;;;;;5082745;28;20041;-63
2021/12/26 04:38:47;;;;;;;4.60;1.95;;;;;;;;;;5080910;28;20047;-62
2021/12/26 04:41:14;;;;;;;4.18;1.73;;;;;;;;;;5080815;28;20130;-63
2021/12/26 04:43:40;;;;;;;4.90;1.77;;;;;;;;;;5081631;28;20047;-63
2021/12/26 04:46:07;;;;;;;2.70;1.35;;;;;;;;;;5079765;28;20101;-63
2021/12/26 04:48:34;;;;;;;8.57;1.83;;;;;;;;;;5081515;28;20049;-63
2021/12/26 04:51:00;;;;;;;5.65;1.67;;;;;;;;;;5073752;28;20060;-63
2021/12/26 04:53:26;;;;;;;7.10;2.13;;;;;;;;;;5077518;28;20040;-63
2021/12/26 04:55:54;;;;;;;6.05;1.95;;;;;;;;;;5078017;28;20075;-63
2021/12/26 04:58:20;;;;;;;4.13;1.83;;;;;;;;;;5080515;28;20704;-63
2021/12/26 05:00:46;;;;;;;5.00;1.55;;;;;;;;;;5075993;28;20064;-63
2021/12/26 05:03:12;;;;;;;4.78;2.40;;;;;;;;;;5082452;28;20043;-63
2021/12/26 05:05:38;;;;;;;5.32;1.70;;;;;;;;;;5076836;28;20048;-63
2021/12/26 05:08:06;;;;;;;2.30;1.15;;;;;;;;;;5090778;28;20440;-64
2021/12/26 05:10:32;;;;;;;5.57;1.75;;;;;;;;;;5075991;28;20073;-64
2021/12/26 05:12:59;;;;;;;6.75;1.67;;;;;;;;;;5074864;28;20177;-63
2021/12/26 05:15:26;;;;;;;4.07;1.73;;;;;;;;;;5079518;28;20101;-64
2021/12/26 05:17:52;;;;;;;6.85;1.50;;;;;;;;;;5074793;28;20127;-64
2021/12/26 05:20:18;;;;;;;3.83;1.65;;;;;;;;;;5079396;28;20046;-64
2021/12/26 05:22:45;;;;;;;4.53;1.60;;;;;;;;;;5077803;28;20048;-64
2021/12/26 05:25:11;;;;;;;4.95;1.55;;;;;;;;;;5078857;28;20117;-64
2021/12/26 05:27:38;;;;;;;4.95;1.73;;;;;;;;;;5075389;28;20476;-64
2021/12/26 05:30:05;;;;;;;5.50;1.60;;;;;;;;;;5077616;28;20048;-64
2021/12/26 05:32:31;;;;;;;3.33;1.70;;;;;;;;;;5076326;28;20115;-64
2021/12/26 05:34:57;;;;;;;5.97;1.55;;;;;;;;;;5081166;28;20130;-64
2021/12/26 05:37:23;;;;;;;5.47;2.00;;;;;;;;;;5078455;28;20052;-64
2021/12/26 05:39:49;;;;;;;4.13;1.77;;;;;;;;;;5077229;28;20083;-64
2021/12/26 05:42:16;;;;;;;3.95;1.77;;;;;;;;;;5076562;28;20091;-64
2021/12/26 05:44:43;;;;;;;4.32;1.52;;;;;;;;;;5074611;28;20047;-64
2021/12/26 05:47:09;;;;;;;4.60;1.73;;;;;;;;;;5091528;28;20538;-64
2021/12/26 05:49:35;;;;;;;5.03;2.00;;;;;;;;;;5077187;28;20062;-65
2021/12/26 05:52:01;;;;;;;6.28;1.67;;;;;;;;;;5073944;28;20044;-64
2021/12/26 05:54:27;;;;;;;4.75;1.58;;;;;;;;;;5082503;28;20557;-65
2021/12/26 05:56:53;;;;;;;6.18;2.00;;;;;;;;;;5091319;28;20048;-64
2021/12/26 05:59:19;;;;;;;4.40;1.52;;;;;;;;;;5074603;28;20131;-64
2021/12/26 06:01:45;;;;;;;3.60;1.23;;;;;;;;;;5073838;28;20102;-65
2021/12/26 06:04:11;;;;;;;5.07;2.05;;;;;;;;;;5075875;28;20040;-64
2021/12/26 06:06:38;;;;;;;9.75;1.75;;;;;;;;;;5084325;28;20122;-65
2021/12/26 06:09:04;;;;;;;3.38;1.45;;;;;;;;;;5083945;28;20399;-65
2021/12/26 06:11:30;;;;;;;3.72;1.65;;;;;;;;;;5080083;28;20036;-65
2021/12/26 06:13:57;;;;;;;5.47;1.38;;;;;;;;;;5074792;28;20036;-65
2021/12/26 06:16:23;;;;;;;4.90;1.58;;;;;;;;;;5092316;28;20488;-64
2021/12/26 06:18:49;;;;;;;5.20;1.67;;;;;;;;;;5073962;28;20124;-65
2021/12/26 06:21:15;;;;;;;7.75;1.65;;;;;;;;;;5080720;28;20047;-65
2021/12/26 06:23:41;;;;;;;4.60;1.35;;;;;;;;;;5078916;28;20120;-65
2021/12/26 06:26:07;;;;;;;5.13;2.08;;;;;;;;;;5075875;28;20550;-65
2021/12/26 06:28:33;;;;;;;4.20;1.55;;;;;;;;;;5077128;28;20399;-65
2021/12/26 06:31:00;;;;;;;6.75;1.90;;;;;;;;;;5080083;28;20036;-64
2021/12/26 06:33:26;;;;;;;4.75;1.80;;;;;;;;;;5079317;28;20044;-64
2021/12/26 06:35:52;;;;;;;4.78;1.90;;;;;;;;;;5073869;28;20048;-63
2021/12/26 06:38:18;;;;;;;4.90;1.73;;;;;;;;;;5081626;28;20539;-64
2021/12/26 06:40:44;;;;;;;5.70;1.98;;;;;;;;;;5079190;28;20046;-64
2021/12/26 06:43:11;;;;;;;3.83;1.48;;;;;;;;;;5078610;28;20136;-64
2021/12/26 06:45:38;;;;;;;4.70;2.00;;;;;;;;;;5079803;28;20063;-64
2021/12/26 06:48:06;;;;;;;6.57;2.65;;;;;;;;;;5086711;28;20467;-65
2021/12/26 06:50:32;;;;;;;9.70;1.58;;;;;;;;;;5082014;28;20052;-64
2021/12/26 06:52:58;;;;;;;5.30;2.78;;;;;;;;;;5080589;28;20040;-65
2021/12/26 06:55:24;;;;;;;4.28;1.67;;;;;;;;;;5075433;28;20388;-64
2021/12/26 06:57:50;;;;;;;5.28;2.00;;;;;;;;;;5080344;28;20043;-64
2021/12/26 07:00:17;;;;;;;6.43;2.03;;;;;;;;;;5078827;28;20040;-64
2021/12/26 07:02:43;;;;;;;8.20;2.60;;;;;;;;;;5082847;28;20050;-64
2021/12/26 07:05:12;;;;;;;5.28;2.25;;;;;;;;;;5086256;28;20123;-64
2021/12/26 07:07:39;;;;;;;5.60;2.58;;;;;;;;;;5089853;28;20166;-64
2021/12/26 07:10:06;;;;;;;4.88;2.10;;;;;;;;;;5085795;28;20055;-64
2021/12/26 07:12:32;;;;;;;5.10;1.63;;;;;;;;;;5085675;28;20058;-64
2021/12/26 07:14:58;;;;;;;3.78;1.70;;;;;;;;;;5081258;28;20568;-64
2021/12/26 07:17:24;;;;;;;7.38;2.95;;;;;;;;;;5082961;28;20066;-64
2021/12/26 07:19:50;;;;;;;8.95;5.65;;;;;;;;;;5078884;28;20045;-64
2021/12/26 07:22:17;;;;;;;6.50;3.03;;;;;;;;;;5078949;28;20044;-64
2021/12/26 07:24:46;;;;;;;8.20;3.03;;;;;;;;;;5084183;28;20054;-64
2021/12/26 07:27:12;;;;;;;7.07;2.47;;;;;;;;;;5081086;28;20111;-65
2021/12/26 07:29:39;;;;;;;4.65;2.40;;;;;;;;;;5079187;28;20453;-64
2021/12/26 07:32:05;;;;;;;4.80;2.28;;;;;;;;;;5084719;28;20163;-65
2021/12/26 07:34:33;;;;;;;3.53;1.75;;;;;;;;;;5082532;28;20119;-64
2021/12/26 07:36:59;;;;;;;6.28;2.55;;;;;;;;;;5079999;28;20072;-64
2021/12/26 07:39:26;;;;;;;9.60;2.55;;;;;;;;;;5083501;28;20483;-62
2021/12/26 07:41:52;;;;;;;8.80;2.15;;;;;;;;;;5088583;28;20144;-64
2021/12/26 07:44:18;;;;;;;6.22;2.22;;;;;;;;;;5085125;27;20477;-64
2021/12/26 07:46:44;;;;;;;5.28;2.38;;;;;;;;;;5087256;28;20097;-64
2021/12/26 07:49:10;;;;;;;5.68;1.95;;;;;;;;;;5089187;28;20054;-64
2021/12/26 07:51:37;;;;;;;8.07;2.20;;;;;;;;;;5090685;28;20063;-64
2021/12/26 07:54:03;;;;;;;4.97;2.10;;;;;;;;;;5086453;28;20413;-64
2021/12/26 07:56:30;;;;;;;11.25;7.10;;;;;;;;;;5095161;28;20415;-64
2021/12/26 07:58:56;;;;;;;6.68;3.78;;;;;;;;;;5093248;28;20532;-61
2021/12/26 08:01:22;;;;;;;5.70;2.03;;;;;;;;;;5091876;28;20035;-63
2021/12/26 08:03:49;;;;;;;5.55;2.40;;;;;;;;;;5086813;28;20070;-63
2021/12/26 08:06:19;;;;;;;5.75;2.67;;;;;;;;;;5087951;28;20109;-61
2021/12/26 08:08:46;;;;;;;5.32;2.00;;;;;;;;;;5089617;28;20040;-62
2021/12/26 08:11:12;;;;;;;6.00;2.35;;;;;;;;;;5088046;28;20120;-62
2021/12/26 08:13:38;;;;;;;3.88;2.10;;;;;;;;;;5083833;28;20048;-72
2021/12/26 08:16:05;;;;;;;8.38;1.95;;;;;;;;;;5090101;28;20143;-64
2021/12/26 08:18:31;;;;;;;6.15;2.10;;;;;;;;;;5089851;28;20356;-62
2021/12/26 08:20:57;;;;;;;7.80;4.93;;;;;;;;;;5086171;28;20036;-62
2021/12/26 08:23:23;;;;;;;8.48;4.38;;;;;;;;;;5089039;28;20131;-63
2021/12/26 08:25:49;;;;;;;10.88;5.53;;;;;;;;;;5082374;28;20508;-63
2021/12/26 08:28:16;;;;;;;8.65;4.20;;;;;;;;;;5077405;28;20095;-63
2021/12/26 08:30:43;;;;;;;6.00;2.67;;;;;;;;;;5079448;28;20043;-63
2021/12/26 08:33:09;;;;;;;6.70;2.50;;;;;;;;;;5086605;28;20059;-63
2021/12/26 08:35:37;;;;;;;6.00;2.40;;;;;;;;;;5079109;28;20124;-63
2021/12/26 08:38:04;;;;;;;6.32;2.45;;;;;;;;;;5074998;28;20086;-63
2021/12/26 08:40:30;;;;;;;5.50;2.53;;;;;;;;;;5090339;28;20043;-63
2021/12/26 08:42:56;;;;;;;5.88;2.45;;;;;;;;;;5073399;28;20051;-68
2021/12/26 08:45:22;;;;;;;7.47;3.75;;;;;;;;;;5086018;28;20040;-60
2021/12/26 08:47:48;;;;;;;8.55;4.38;;;;;;;;;;5084878;28;20131;-62
2021/12/26 08:50:15;;;;;;;14.88;4.53;;;;;;;;;;5084904;28;20123;-62
2021/12/26 08:52:42;;;;;;;10.95;4.18;;;;;;;;;;5081946;28;20491;-61
2021/12/26 08:55:11;;;;;;;8.30;3.38;;;;;;;;;;5079438;28;20040;-62
2021/12/26 08:57:37;;;;;;;5.40;2.45;;;;;;;;;;5087834;28;20043;-62
2021/12/26 09:00:05;;;;;;;8.30;2.75;;;;;;;;;;5088417;28;20044;-61
2021/12/26 09:02:31;;;;;;;7.72;2.72;;;;;;;;;;5095306;28;20490;-61
2021/12/26 09:04:58;;;;;;;6.20;2.47;;;;;;;;;;5089721;28;20127;-60
2021/12/26 09:07:24;;;;;;;6.00;2.47;;;;;;;;;;5088632;28;20122;-64
2021/12/26 09:09:50;;;;;;;4.55;2.28;;;;;;;;;;5082008;28;20483;-64
2021/12/26 09:12:16;;;;;;;10.95;3.72;;;;;;;;;;5092535;28;20032;-63
2021/12/26 09:14:42;;;;;;;8.07;3.30;;;;;;;;;;5086020;28;21264;-65
2021/12/26 09:17:09;;;;;;;8.00;4.97;;;;;;;;;;5082941;28;20467;-64
2021/12/26 09:19:35;;;;;;;10.00;3.42;;;;;;;;;;5088912;28;20131;-63
2021/12/26 09:22:04;;;;;;;5.40;2.42;;;;;;;;;;5090283;28;20044;-64
2021/12/26 09:24:30;;;;;;;10.50;2.70;;;;;;;;;;5103821;27;20475;-65
2021/12/26 09:26:56;;;;;;;6.18;3.15;;;;;;;;;;5090599;28;20039;-65
2021/12/26 09:29:23;;;;;;;8.75;3.30;;;;;;;;;;5084663;28;20135;-65
2021/12/26 09:31:50;;;;;;;6.57;3.42;;;;;;;;;;5087441;28;20032;-65
2021/12/26 09:34:16;;;;;;;5.22;2.35;;;;;;;;;;5079219;28;20135;-64
2021/12/26 09:36:43;;;;;;;5.75;2.72;;;;;;;;;;5089636;28;20402;-63
2021/12/26 09:39:09;;;;;;;10.38;2.53;;;;;;;;;;5086808;28;20047;-64
2021/12/26 09:41:37;;;;;;;4.90;2.70;;;;;;;;;;5089378;28;20123;-63
2021/12/26 09:44:03;;;;;;;6.18;2.65;;;;;;;;;;5087431;28;20047;-63
2021/12/26 09:46:31;;;;;;;13.20;3.10;;;;;;;;;;5073291;28;20050;-65
2021/12/26 09:48:57;;;;;;;6.13;2.35;;;;;;;;;;5082703;28;20056;-65
2021/12/26 09:51:24;;;;;;;10.93;3.00;;;;;;;;;;5083873;28;20047;-64
2021/12/26 09:53:50;;;;;;;6.43;2.78;;;;;;;;;;5083393;28;20043;-63
2021/12/26 09:56:17;;;;;;;6.68;2.40;;;;;;;;;;5080219;28;20040;-63
2021/12/26 09:58:52;;;;;;;12.38;2.78;;;;;;;;;;5080034;28;20368;-65
2021/12/26 10:01:29;;;;;;;6.30;2.72;;;;;;;;;;5085553;28;20479;-65
2021/12/26 10:03:56;;;;;;;6.82;2.50;;;;;;;;;;5077998;28;20420;-63
2021/12/26 10:06:22;;;;;;;7.07;2.92;;;;;;;;;;5085297;28;20077;-65
2021/12/26 10:08:59;;;;;;;8.57;2.63;;;;;;;;;;5086152;28;20063;-62
2021/12/26 10:11:27;;;;;;;7.28;3.00;;;;;;;;;;5081870;28;20059;-64
2021/12/26 10:13:56;;;;;;;5.60;2.40;;;;;;;;;;5084356;28;20045;-64
2021/12/26 10:16:24;;;;;;;5.75;2.38;;;;;;;;;;5086293;28;20076;-64
2021/12/26 10:18:50;;;;;;;6.18;2.92;;;;;;;;;;5090230;28;20044;-61
2021/12/26 10:21:25;;;;;;;11.00;2.85;;;;;;;;;;5086781;28;20380;-64
2021/12/26 10:23:52;;;;;;;8.07;3.13;;;;;;;;;;5082591;28;20037;-65
2021/12/26 10:26:19;;;;;;;5.95;2.65;;;;;;;;;;5088817;28;20379;-76
2021/12/26 10:29:03;;;;;;;7.72;3.00;;;;;;;;;;5084296;28;20040;-65
2021/12/26 10:31:30;;;;;;;7.40;3.03;;;;;;;;;;5089466;28;20414;-66
2021/12/26 10:33:56;;;;;;;8.00;4.32;;;;;;;;;;5091760;28;20395;-64
2021/12/26 10:36:22;;;;;;;10.68;3.33;;;;;;;;;;5090674;28;20032;-64
2021/12/26 10:39:08;;;;;;;5.95;2.70;;;;;;;;;;5082720;28;20048;-65
2021/12/26 10:41:34;;;;;;;7.35;3.03;;;;;;;;;;5081541;28;20101;-62
2021/12/26 10:44:00;;;;;;;5.30;2.72;;;;;;;;;;5090010;28;20036;-65
2021/12/26 10:46:26;;;;;;;5.85;3.10;;;;;;;;;;5086652;28;20062;-61
2021/12/26 10:48:53;;;;;;;7.43;2.80;;;;;;;;;;5084714;28;20524;-66
2021/12/26 10:51:33;;;;;;;8.65;2.97;;;;;;;;;;5088384;28;20044;-62
2021/12/26 10:54:14;;;;;;;7.88;3.70;;;;;;;;;;5087798;28;20123;-64
2021/12/26 10:56:41;;;;;;;6.13;3.55;;;;;;;;;;5079006;28;20043;-64
2021/12/26 10:59:18;;;;;;;7.15;3.30;;;;;;;;;;5091538;28;20048;-66
2021/12/26 11:01:44;;;;;;;11.82;3.58;;;;;;;;;;5083226;28;20108;-61
2021/12/26 11:04:11;;;;;;;8.73;3.00;;;;;;;;;;5086449;28;20349;-73
2021/12/26 11:06:57;;;;;;;6.28;3.13;;;;;;;;;;5089760;28;20163;-62
2021/12/26 11:09:24;;;;;;;8.45;3.17;;;;;;;;;;5087726;28;20553;-61
2021/12/26 11:12:08;;;;;;;6.78;2.83;;;;;;;;;;5088394;28;20052;-61
2021/12/26 11:14:54;;;;;;;7.60;3.08;;;;;;;;;;5084825;28;20411;-61
2021/12/26 11:17:29;;;;;;;6.63;3.35;;;;;;;;;;5083858;28;20131;-61
2021/12/26 11:19:55;;;;;;;6.22;2.63;;;;;;;;;;5093798;28;20418;-60
2021/12/26 11:22:23;;;;;;;7.60;3.25;;;;;;;;;;5088190;28;20067;-59
2021/12/26 11:24:50;;;;;;;5.28;2.78;;;;;;;;;;5090590;28;20056;-59
2021/12/26 11:27:16;;;;;;;5.63;2.97;;;;;;;;;;5090622;28;20123;-61
2021/12/26 11:29:42;;;;;;;8.98;3.72;;;;;;;;;;5087813;28;20143;-62
2021/12/26 11:32:08;;;;;;;6.70;3.45;;;;;;;;;;5086226;28;20134;-71
2021/12/26 11:34:35;;;;;;;7.93;3.30;;;;;;;;;;5090842;28;20050;-62
2021/12/26 11:37:01;;;;;;;9.60;3.60;;;;;;;;;;5087463;28;20032;-62
2021/12/26 11:39:28;;;;;;;7.25;3.15;;;;;;;;;;5097955;28;20047;-61
2021/12/26 11:41:54;;;;;;;10.00;3.55;;;;;;;;;;5088442;28;20480;-61
2021/12/26 11:44:40;;;;;;;8.10;3.42;;;;;;;;;;5092650;28;20043;-62
2021/12/26 11:47:17;;;;;;;7.70;3.35;;;;;;;;;;5087826;28;20363;-62
2021/12/26 11:50:01;;;;;;;7.85;3.60;;;;;;;;;;5089434;28;20118;-62
2021/12/26 11:52:27;;;;;;;;;;;;;;;;;;5086899;28;20055;-61
2021/12/26 11:54:57;;;;;;;8.07;3.67;;;;;;;;;;5088440;28;19920;-62
2021/12/26 11:57:41;;;;;;;7.47;3.25;;;;;;;;;;5087915;28;20091;-60
2021/12/26 12:00:10;;;;;;;9.10;3.55;;;;;;;;;;5079319;28;20127;-62
2021/12/26 12:02:38;;;;;;;9.82;3.42;;;;;;;;;;5083704;28;20105;-62
2021/12/26 12:05:07;;;;;;;7.18;3.00;;;;;;;;;;5081697;28;20048;-61
2021/12/26 12:07:48;;;;;;;7.95;3.50;;;;;;;;;;5081868;28;20067;-62
2021/12/26 12:10:30;;;;;;;7.53;3.53;;;;;;;;;;5084677;28;20040;-62
2021/12/26 12:12:56;;;;;;;8.15;3.65;;;;;;;;;;5085373;28;20052;-74
2021/12/26 12:15:40;;;;;;;5.65;3.10;;;;;;;;;;5090893;28;20039;-62
2021/12/26 12:18:09;;;;;;;8.07;3.90;;;;;;;;;;5085668;28;20054;-61
2021/12/26 12:20:36;;;;;;;9.35;3.35;;;;;;;;;;5084187;28;20113;-59
2021/12/26 12:23:08;;;;;;;6.53;2.97;;;;;;;;;;5085588;28;20036;-60
2021/12/26 12:25:35;;;;;;;7.93;2.88;;;;;;;;;;5084838;28;20040;-60
2021/12/26 12:28:06;;;;;;;5.45;3.10;;;;;;;;;;5089764;28;20496;-66
2021/12/26 12:30:33;;;;;;;8.45;3.35;;;;;;;;;;5083076;28;20460;-61
2021/12/26 12:33:13;;;;;;;6.05;3.05;;;;;;;;;;5090764;28;20048;-62
2021/12/26 12:35:54;;;;;;;6.50;3.10;;;;;;;;;;5090786;28;20082;-62
2021/12/26 12:38:26;;;;;;;7.65;3.40;;;;;;;;;;5072737;28;20206;-62
2021/12/26 12:40:52;;;;;;;6.63;3.13;;;;;;;;;;5087102;28;20146;-62
2021/12/26 12:43:20;;;;;;;6.72;2.88;;;;;;;;;;5083213;28;20162;-60
2021/12/26 12:46:05;;;;;;;6.07;2.92;;;;;;;;;;5090241;28;20044;-62
2021/12/26 12:48:33;;;;;;;6.22;3.10;;;;;;;;;;5085734;28;20127;-61
2021/12/26 12:51:15;;;;;;;8.93;3.80;;;;;;;;;;5093302;28;20043;-62
2021/12/26 12:53:45;;;;;;;9.65;3.90;;;;;;;;;;5091337;28;20412;-62
2021/12/26 12:56:36;;;;;;;6.60;3.67;;;;;;;;;;5086466;28;20092;-62
2021/12/26 12:59:20;;;;;;;9.25;3.33;;;;;;;;;;5089703;28;20453;-62
2021/12/26 13:01:48;;;;;;;14.38;3.92;;;;;;;;;;5088848;28;20046;-62
2021/12/26 13:04:15;;;;;;;7.97;3.40;;;;;;;;;;5089246;28;20035;-62
2021/12/26 13:06:51;;;;;;;9.82;3.97;;;;;;;;;;5083424;28;20372;-62
2021/12/26 13:09:18;;;;;;;7.97;3.33;;;;;;;;;;5089961;28;20036;-62
2021/12/26 13:11:44;;;;;;;8.40;3.40;;;;;;;;;;5091569;28;20138;-62
2021/12/26 13:14:11;;;;;;;7.05;3.60;;;;;;;;;;5087086;28;20044;-62
2021/12/26 13:16:37;;;;;;;7.53;3.70;;;;;;;;;;5079849;28;20043;-63
2021/12/26 13:19:04;;;;;;;9.18;3.35;;;;;;;;;;5089540;28;20487;-63
2021/12/26 13:21:31;;;;;;;5.85;3.25;;;;;;;;;;5093417;28;20058;-65
2021/12/26 13:23:57;;;;;;;9.65;3.22;;;;;;;;;;5082957;28;20055;-65
2021/12/26 13:26:23;;;;;;;7.68;3.65;;;;;;;;;;5091055;28;20145;-65
2021/12/26 13:28:50;;;;;;;5.82;3.55;;;;;;;;;;5090515;28;20052;-65
2021/12/26 13:31:17;;;;;;;8.43;3.78;;;;;;;;;;5086382;28;20056;-65
2021/12/26 13:33:46;;;;;;;7.38;3.90;;;;;;;;;;5086407;28;20392;-65
2021/12/26 13:36:12;;;;;;;6.55;3.60;;;;;;;;;;5083644;28;20507;-65
2021/12/26 13:38:38;;;;;;;6.70;3.70;;;;;;;;;;5088416;28;20119;-65
2021/12/26 13:41:05;;;;;;;6.30;3.45;;;;;;;;;;5083376;28;20177;-65
2021/12/26 13:43:33;;;;;;;8.50;3.80;;;;;;;;;;5096769;28;20411;-65
2021/12/26 13:46:00;;;;;;;7.97;4.20;;;;;;;;;;5093459;28;20138;-65
2021/12/26 13:48:27;;;;;;;7.72;4.00;;;;;;;;;;5092880;28;20051;-65
2021/12/26 13:50:53;;;;;;;9.20;4.25;;;;;;;;;;5089565;28;20044;-65
2021/12/26 13:53:19;;;;;;;8.23;3.95;;;;;;;;;;5083395;28;20130;-65
2021/12/26 13:55:52;;;;;;;7.82;4.05;;;;;;;;;;5083941;28;20048;-65
2021/12/26 13:58:18;;;;;;;9.35;4.18;;;;;;;;;;5084966;28;20396;-65
2021/12/26 14:00:53;;;;;;;7.55;3.90;;;;;;;;;;5091551;28;20451;-65
2021/12/26 14:03:19;;;;;;;11.88;4.78;;;;;;;;;;5088086;28;20487;-65
2021/12/26 14:05:45;;;;;;;10.15;4.07;;;;;;;;;;5085005;28;20371;-65
2021/12/26 14:08:17;;;;;;;9.45;4.00;;;;;;;;;;5084027;28;20040;-65
2021/12/26 14:10:44;;;;;;;8.25;3.58;;;;;;;;;;5089122;28;20090;-65
2021/12/26 14:13:11;;;;;;;8.30;4.25;;;;;;;;;;5087032;28;20050;-65
2021/12/26 14:15:45;;;;;;;7.68;4.10;;;;;;;;;;5088284;28;21040;-65
2021/12/26 14:18:16;;;;;;;8.07;4.10;;;;;;;;;;5083255;28;20518;-65
2021/12/26 14:20:49;;;;;;;7.95;4.10;;;;;;;;;;5089325;28;20147;-65
2021/12/26 14:23:16;;;;;;;7.55;3.40;;;;;;;;;;5088881;28;20443;-65
2021/12/26 14:25:43;;;;;;;7.60;4.03;;;;;;;;;;5085124;28;20058;-64
2021/12/26 14:28:14;;;;;;;7.72;3.55;;;;;;;;;;5081556;28;20056;-65
2021/12/26 14:30:41;;;;;;;6.90;3.60;;;;;;;;;;5088197;28;20113;-65
2021/12/26 14:33:07;;;;;;;8.70;4.22;;;;;;;;;;5084950;28;20097;-65
2021/12/26 14:35:33;;;;;;;7.88;3.22;;;;;;;;;;5082183;28;20075;-65
2021/12/26 14:38:08;;;;;;;9.23;4.03;;;;;;;;;;5085599;28;20074;-65
2021/12/26 14:40:34;;;;;;;8.77;4.78;;;;;;;;;;5101200;28;20039;-64
2021/12/26 14:43:06;;;;;;;9.02;4.28;;;;;;;;;;5086273;28;20386;-65
2021/12/26 14:45:33;;;;;;;9.48;4.57;;;;;;;;;;5089177;28;20062;-65
2021/12/26 14:47:59;;;;;;;6.93;3.83;;;;;;;;;;5087860;28;20179;-65
2021/12/26 14:50:25;;;;;;;10.55;4.65;;;;;;;;;;5085691;28;20044;-65